Time;durP1;ratioP1;P1;durP2;ratioP2;P2;SDS_P1;SDS_P2;PMS_P1;PMS_P2;Temp;Humidity;BMP_temperature;BMP_pressure;BME280_temperature;BME280_humidity;BME280_pressure;Samples;Min_cycle;Max_cycle;Signal;HPM_P1;HPM_P2
2021/08/03 00:02:26;;;;;;;3.22;1.60;;;13.80;99.90;;;;;;5130933;28;20038;-83
2021/08/03 00:04:57;;;;;;;5.00;1.58;;;13.80;99.90;;;;;;5130315;28;20044;-83
2021/08/03 00:07:27;;;;;;;4.43;1.50;;;13.80;99.90;;;;;;5129254;28;20392;-83
2021/08/03 00:09:57;;;;;;;3.97;1.48;;;13.70;99.90;;;;;;5127005;28;20415;-84
2021/08/03 00:12:24;;;;;;;3.33;1.50;;;13.70;99.90;;;;;;5127274;28;20028;-83
2021/08/03 00:14:53;;;;;;;4.95;1.77;;;13.60;99.90;;;;;;5109603;28;20036;-81
2021/08/03 00:17:23;;;;;;;4.65;1.88;;;13.60;99.90;;;;;;5127188;28;20059;-84
2021/08/03 00:19:51;;;;;;;6.38;1.60;;;13.50;99.90;;;;;;5127125;28;20036;-84
2021/08/03 00:22:22;;;;;;;4.88;1.90;;;13.50;99.90;;;;;;5093916;28;20119;-83
2021/08/03 00:24:50;;;;;;;8.80;1.88;;;13.40;99.90;;;;;;5127252;28;20086;-84
2021/08/03 00:27:18;;;;;;;6.32;1.95;;;13.40;99.90;;;;;;5109987;28;20036;-84
2021/08/03 00:29:45;;;;;;;7.18;1.80;;;13.40;99.90;;;;;;5127335;28;20443;-84
2021/08/03 00:32:12;;;;;;;6.10;1.63;;;13.40;99.90;;;;;;5126833;28;20058;-84
2021/08/03 00:34:39;;;;;;;6.10;2.10;;;13.30;99.90;;;;;;5127070;28;20080;-83
2021/08/03 00:37:09;;;;;;;5.03;1.63;;;13.30;99.90;;;;;;5109883;28;20460;-83
2021/08/03 00:39:38;;;;;;;6.95;1.80;;;13.20;99.90;;;;;;5109651;28;20034;-83
2021/08/03 00:42:06;;;;;;;5.53;1.60;;;13.20;99.90;;;;;;5126565;28;20064;-83
2021/08/03 00:44:49;;;;;;;3.38;1.70;;;13.20;99.90;;;;;;5093623;28;20032;-83
2021/08/03 00:47:18;;;;;;;6.85;1.70;;;13.10;99.90;;;;;;5126563;28;20118;-83
2021/08/03 00:49:46;;;;;;;4.50;1.80;;;13.00;99.90;;;;;;5127243;28;20062;-83
2021/08/03 00:52:15;;;;;;;4.15;1.77;;;13.00;99.90;;;;;;5126618;28;20047;-83
2021/08/03 00:54:43;;;;;;;6.60;1.80;;;12.90;99.90;;;;;;5110007;28;20056;-84
2021/08/03 00:57:11;;;;;;;4.45;1.58;;;12.80;99.90;;;;;;5076330;28;20052;-83
2021/08/03 00:59:38;;;;;;;5.30;1.80;;;12.80;99.90;;;;;;5093511;28;20432;-83
2021/08/03 01:02:06;;;;;;;8.02;2.45;;;12.70;99.90;;;;;;5126701;28;20032;-84
2021/08/03 01:04:34;;;;;;;6.28;1.95;;;12.60;99.90;;;;;;5127430;28;20036;-83
2021/08/03 01:07:13;;;;;;;3.55;1.75;;;12.60;99.90;;;;;;5126330;28;20469;-83
2021/08/03 01:09:47;;;;;;;5.55;2.13;;;12.50;99.90;;;;;;5126951;28;20040;-83
2021/08/03 01:12:30;;;;;;;4.70;2.00;;;12.40;99.90;;;;;;5126264;28;20042;-84
2021/08/03 01:15:16;;;;;;;5.57;2.10;;;12.40;99.90;;;;;;5127895;28;20040;-83
2021/08/03 01:18:22;;;;;;;6.55;2.10;;;12.40;99.90;;;;;;5128131;28;20032;-83
2021/08/03 01:21:25;;;;;;;3.25;2.00;;;12.40;99.90;;;;;;5126517;28;20040;-83
2021/08/03 01:24:01;;;;;;;5.25;2.00;;;12.40;99.90;;;;;;5116509;28;20653;-82
2021/08/03 01:27:02;;;;;;;6.28;2.17;;;12.40;99.90;;;;;;5127287;28;20036;-83
2021/08/03 01:29:30;;;;;;;4.22;2.00;;;12.40;99.90;;;;;;5127517;28;20492;-83
2021/08/03 01:32:05;;;;;;;4.20;2.15;;;12.40;99.90;;;;;;5128722;28;20032;-83
2021/08/03 01:34:36;;;;;;;6.78;2.08;;;12.40;99.90;;;;;;5130136;28;20510;-83
2021/08/03 01:37:04;;;;;;;4.38;2.30;;;12.40;99.90;;;;;;5129710;28;20035;-81
2021/08/03 01:39:43;;;;;;;6.78;2.30;;;12.30;99.90;;;;;;5112866;28;20039;-84
2021/08/03 01:42:12;;;;;;;5.50;2.03;;;12.40;99.90;;;;;;5129287;28;20131;-82
2021/08/03 01:44:41;;;;;;;8.98;2.40;;;12.30;99.90;;;;;;5113154;28;20071;-83
2021/08/03 01:47:08;;;;;;;5.00;2.13;;;12.30;99.90;;;;;;5112553;28;20034;-83
2021/08/03 01:49:39;;;;;;;5.20;2.17;;;12.30;99.90;;;;;;5113410;28;20043;-83
2021/08/03 01:52:07;;;;;;;4.53;2.05;;;12.30;99.90;;;;;;5129363;28;20119;-82
2021/08/03 01:54:34;;;;;;;5.32;2.45;;;12.30;99.90;;;;;;5112605;28;20052;-83
2021/08/03 01:57:02;;;;;;;4.57;2.10;;;12.20;99.90;;;;;;5112799;28;20042;-83
2021/08/03 01:59:30;;;;;;;3.58;2.17;;;12.20;99.90;;;;;;5112279;28;20032;-82
2021/08/03 02:01:58;;;;;;;4.78;2.17;;;12.20;99.90;;;;;;5129891;28;20127;-83
2021/08/03 02:04:27;;;;;;;5.65;2.13;;;12.10;99.90;;;;;;5129261;28;20528;-82
2021/08/03 02:06:55;;;;;;;7.60;2.40;;;12.10;99.90;;;;;;5129412;28;20405;-82
2021/08/03 02:09:23;;;;;;;5.68;2.33;;;12.10;99.90;;;;;;5095598;28;20063;-83
2021/08/03 02:11:51;;;;;;;7.47;2.03;;;12.00;99.90;;;;;;5129302;28;20036;-83
2021/08/03 02:14:21;;;;;;;3.35;2.10;;;12.00;99.90;;;;;;5128938;28;20123;-83
2021/08/03 02:16:49;;;;;;;5.97;2.33;;;11.90;99.90;;;;;;5129163;28;20040;-83
2021/08/03 02:19:15;;;;;;;6.78;2.17;;;11.90;99.90;;;;;;5128828;28;20032;-83
2021/08/03 02:21:44;;;;;;;5.03;2.05;;;11.80;99.90;;;;;;5130395;28;20051;-82
2021/08/03 02:24:12;;;;;;;4.72;2.28;;;11.80;99.90;;;;;;5129871;28;20161;-82
2021/08/03 02:26:39;;;;;;;4.18;2.28;;;11.80;99.90;;;;;;5129251;28;20043;-82
2021/08/03 02:29:07;;;;;;;6.30;2.55;;;11.80;99.90;;;;;;5129893;28;20118;-83
2021/08/03 02:31:42;;;;;;;5.35;2.63;;;11.80;99.90;;;;;;5111740;28;20094;-83
2021/08/03 02:34:29;;;;;;;7.22;2.58;;;11.90;99.90;;;;;;5129723;28;20036;-81
2021/08/03 02:37:00;;;;;;;9.38;2.85;;;11.90;99.90;;;;;;5128570;28;20081;-83
2021/08/03 02:39:28;;;;;;;5.72;2.78;;;12.00;99.90;;;;;;5129565;28;20114;-82
2021/08/03 02:41:55;;;;;;;3.95;2.30;;;11.90;99.90;;;;;;5128188;28;20446;-83
2021/08/03 02:44:23;;;;;;;4.38;2.22;;;11.90;99.90;;;;;;5128693;28;20562;-83
2021/08/03 02:46:54;;;;;;;4.75;2.13;;;11.90;99.90;;;;;;5111924;28;20032;-83
2021/08/03 02:49:35;;;;;;;7.10;2.60;;;11.90;99.90;;;;;;5129345;28;20042;-83
2021/08/03 02:52:04;;;;;;;4.97;2.70;;;11.90;99.90;;;;;;5098996;28;20039;-83
2021/08/03 02:54:35;;;;;;;5.20;2.33;;;12.00;99.90;;;;;;5127912;28;20134;-83
2021/08/03 02:57:06;;;;;;;4.60;2.30;;;11.90;99.90;;;;;;5128378;28;20124;-82
2021/08/03 02:59:38;;;;;;;3.90;2.33;;;11.90;99.90;;;;;;5129592;28;20044;-83
2021/08/03 03:02:09;;;;;;;5.13;2.53;;;11.90;99.90;;;;;;5128778;28;20392;-83
2021/08/03 03:04:48;;;;;;;5.05;2.40;;;11.90;99.90;;;;;;5129402;28;20043;-83
2021/08/03 03:07:33;;;;;;;6.38;2.60;;;11.80;99.90;;;;;;5111376;28;20101;-82
2021/08/03 03:10:06;;;;;;;6.05;2.53;;;11.80;99.90;;;;;;5128469;28;20464;-82
2021/08/03 03:12:35;;;;;;;4.57;2.60;;;11.70;99.90;;;;;;5127902;28;20043;-83
2021/08/03 03:15:04;;;;;;;4.93;2.40;;;11.70;99.90;;;;;;5128213;28;20036;-83
2021/08/03 03:17:35;;;;;;;4.65;2.58;;;11.70;99.90;;;;;;5127798;28;20123;-83
2021/08/03 03:20:04;;;;;;;3.90;2.30;;;11.70;99.90;;;;;;5129156;28;20077;-83
2021/08/03 03:22:35;;;;;;;6.00;2.72;;;11.60;99.90;;;;;;5127588;28;20127;-82
2021/08/03 03:25:04;;;;;;;4.43;2.70;;;11.60;99.90;;;;;;5129333;28;20453;-83
2021/08/03 03:27:31;;;;;;;6.25;2.63;;;11.60;99.90;;;;;;5128720;28;20424;-83
2021/08/03 03:29:59;;;;;;;5.22;2.92;;;11.50;99.90;;;;;;5111305;28;20169;-83
2021/08/03 03:32:30;;;;;;;6.45;2.70;;;11.50;99.90;;;;;;5110626;28;20032;-83
2021/08/03 03:34:58;;;;;;;5.28;2.30;;;11.40;99.90;;;;;;5127885;28;20032;-83
2021/08/03 03:37:29;;;;;;;6.40;2.72;;;11.40;99.90;;;;;;5110237;28;20032;-83
2021/08/03 03:39:57;;;;;;;7.13;2.55;;;11.40;99.90;;;;;;5110687;28;20463;-83
2021/08/03 03:42:34;;;;;;;4.40;2.80;;;11.30;99.90;;;;;;5110379;28;20047;-82
2021/08/03 03:45:02;;;;;;;6.10;2.92;;;11.40;99.90;;;;;;5127368;28;20127;-83
2021/08/03 03:47:32;;;;;;;4.93;2.72;;;11.30;99.90;;;;;;5127098;28;20373;-83
2021/08/03 03:50:08;;;;;;;6.30;2.70;;;11.40;99.90;;;;;;5110545;28;20035;-83
2021/08/03 03:52:43;;;;;;;4.50;2.40;;;11.50;99.90;;;;;;5126891;28;20036;-83
2021/08/03 03:55:14;;;;;;;5.50;2.92;;;11.50;99.90;;;;;;5127712;28;20060;-83
2021/08/03 03:57:43;;;;;;;6.00;2.80;;;11.50;99.90;;;;;;5109528;28;20055;-83
2021/08/03 04:00:13;;;;;;;8.48;3.05;;;11.60;99.90;;;;;;5110610;28;20032;-83
2021/08/03 04:02:42;;;;;;;7.82;3.05;;;11.70;99.90;;;;;;5127257;28;20061;-83
2021/08/03 04:05:14;;;;;;;5.88;3.25;;;11.70;99.90;;;;;;5127430;28;20119;-83
2021/08/03 04:07:49;;;;;;;5.82;2.90;;;11.80;99.90;;;;;;5127407;28;20478;-83
2021/08/03 04:10:18;;;;;;;6.78;3.00;;;11.80;99.90;;;;;;5096299;28;20404;-83
2021/08/03 04:12:46;;;;;;;11.40;3.13;;;11.90;99.90;;;;;;5126962;28;20036;-83
2021/08/03 04:15:14;;;;;;;7.15;3.10;;;12.00;99.90;;;;;;5110617;28;20039;-83
2021/08/03 04:17:41;;;;;;;5.82;3.10;;;12.00;99.90;;;;;;5118443;28;20051;-83
2021/08/03 04:20:09;;;;;;;7.18;2.97;;;12.10;99.90;;;;;;5094166;28;20036;-83
2021/08/03 04:22:36;;;;;;;8.00;3.58;;;12.10;99.90;;;;;;5116764;28;20066;-82
2021/08/03 04:25:03;;;;;;;5.57;3.10;;;12.10;99.90;;;;;;5130789;28;20079;-83
2021/08/03 04:27:31;;;;;;;7.38;3.05;;;12.20;99.90;;;;;;5130319;28;20043;-82
2021/08/03 04:29:58;;;;;;;4.60;3.10;;;12.20;99.90;;;;;;5130793;28;20032;-83
2021/08/03 04:32:25;;;;;;;5.07;2.83;;;12.30;99.90;;;;;;5113315;28;20035;-82
2021/08/03 04:34:52;;;;;;;6.57;3.30;;;12.30;99.90;;;;;;5147473;28;20411;-82
2021/08/03 04:37:18;;;;;;;10.50;3.25;;;12.40;99.90;;;;;;5147304;28;20035;-82
2021/08/03 04:39:45;;;;;;;5.70;3.08;;;12.40;99.90;;;;;;5130249;28;20065;-82
2021/08/03 04:42:12;;;;;;;6.72;3.15;;;12.40;99.90;;;;;;5113862;28;20509;-82
2021/08/03 04:44:39;;;;;;;6.45;3.10;;;12.50;99.90;;;;;;5146589;28;20507;-82
2021/08/03 04:47:06;;;;;;;6.47;2.90;;;12.50;99.90;;;;;;5130856;28;20036;-82
2021/08/03 04:49:33;;;;;;;5.05;2.83;;;12.50;99.90;;;;;;5129926;28;20463;-82
2021/08/03 04:52:00;;;;;;;5.22;2.60;;;12.60;99.90;;;;;;5113685;28;20066;-82
2021/08/03 04:54:27;;;;;;;6.93;2.70;;;12.60;99.90;;;;;;5113140;28;20048;-81
2021/08/03 04:56:53;;;;;;;8.40;2.60;;;12.70;99.90;;;;;;5113499;28;20222;-82
2021/08/03 04:59:20;;;;;;;8.65;3.38;;;12.70;99.90;;;;;;5130291;28;20395;-82
2021/08/03 05:01:47;;;;;;;5.22;2.80;;;12.70;99.90;;;;;;5096457;28;20051;-82
2021/08/03 05:04:14;;;;;;;9.02;3.03;;;12.80;99.90;;;;;;5113310;28;20036;-82
2021/08/03 05:06:41;;;;;;;5.90;2.88;;;12.80;99.90;;;;;;5115186;28;20468;-82
2021/08/03 05:09:07;;;;;;;5.95;2.95;;;12.90;99.90;;;;;;5134454;28;20028;-82
2021/08/03 05:11:34;;;;;;;5.55;2.92;;;12.90;99.90;;;;;;5116927;28;20444;-82
2021/08/03 05:14:05;;;;;;;7.97;3.10;;;13.00;99.90;;;;;;5134952;28;20062;-83
2021/08/03 05:16:32;;;;;;;7.25;2.97;;;13.00;99.90;;;;;;5117118;28;20048;-82
2021/08/03 05:18:59;;;;;;;4.40;2.58;;;13.10;99.90;;;;;;5150825;28;20035;-83
2021/08/03 05:21:32;;;;;;;7.75;2.80;;;13.20;99.90;;;;;;5134539;28;20714;-81
2021/08/03 05:24:01;;;;;;;7.78;3.03;;;13.20;99.90;;;;;;5134295;28;20051;-82
2021/08/03 05:26:27;;;;;;;5.75;2.75;;;13.30;99.90;;;;;;5133760;28;20040;-83
2021/08/03 05:28:54;;;;;;;9.23;3.05;;;13.30;99.90;;;;;;5150189;28;20365;-82
2021/08/03 05:31:21;;;;;;;6.47;2.85;;;13.30;99.90;;;;;;5117155;28;20035;-82
2021/08/03 05:33:48;;;;;;;6.88;2.85;;;13.40;99.90;;;;;;5116619;28;20046;-82
2021/08/03 05:36:15;;;;;;;7.05;2.90;;;13.50;99.90;;;;;;5150886;28;20035;-82
2021/08/03 05:38:41;;;;;;;6.78;3.05;;;13.60;99.90;;;;;;5133243;28;20031;-82
2021/08/03 05:41:08;;;;;;;8.23;3.33;;;13.70;99.90;;;;;;5117121;28;20118;-82
2021/08/03 05:43:35;;;;;;;8.18;3.17;;;13.80;99.90;;;;;;5133151;28;20038;-82
2021/08/03 05:46:02;;;;;;;6.32;2.25;;;13.90;99.90;;;;;;5116816;28;20067;-82
2021/08/03 05:48:30;;;;;;;5.75;2.70;;;13.90;99.90;;;;;;5116952;28;20062;-83
2021/08/03 05:50:56;;;;;;;7.88;2.70;;;14.00;99.90;;;;;;5116211;28;20082;-83
2021/08/03 05:53:25;;;;;;;4.10;2.50;;;14.00;99.90;;;;;;5133468;28;20043;-83
2021/08/03 05:55:53;;;;;;;6.78;2.33;;;14.10;99.90;;;;;;5132949;28;20059;-83
2021/08/03 05:58:19;;;;;;;5.88;2.42;;;14.20;99.90;;;;;;5133366;28;20537;-83
2021/08/03 06:00:46;;;;;;;5.13;2.20;;;14.30;99.90;;;;;;5116374;28;20517;-83
2021/08/03 06:03:13;;;;;;;5.28;2.80;;;14.40;99.90;;;;;;5133082;28;20446;-83
2021/08/03 06:05:40;;;;;;;6.97;2.33;;;14.50;99.90;;;;;;5132299;28;20038;-83
2021/08/03 06:08:09;;;;;;;6.70;2.60;;;14.60;99.90;;;;;;5109787;28;20124;-83
2021/08/03 06:10:37;;;;;;;4.70;2.42;;;14.70;99.90;;;;;;5131894;28;20032;-83
2021/08/03 06:13:06;;;;;;;5.03;2.60;;;14.80;99.90;;;;;;5132716;28;20060;-83
2021/08/03 06:15:39;;;;;;;5.05;1.90;;;14.90;99.90;;;;;;5118101;28;20024;-83
2021/08/03 06:18:36;;;;;;;3.97;1.63;;;15.00;99.90;;;;;;5137150;28;20035;-83
2021/08/03 06:21:05;;;;;;;4.47;1.90;;;15.10;99.90;;;;;;5128301;28;20048;-83
2021/08/03 06:23:32;;;;;;;7.25;1.85;;;15.10;99.90;;;;;;5112396;28;20043;-85
2021/08/03 06:26:00;;;;;;;4.07;1.83;;;15.20;99.90;;;;;;5095757;28;20436;-83
2021/08/03 06:28:27;;;;;;;4.72;1.90;;;15.20;99.90;;;;;;5112697;28;20032;-83
2021/08/03 06:30:54;;;;;;;4.18;1.90;;;15.30;99.90;;;;;;5112005;28;20039;-83
2021/08/03 06:33:22;;;;;;;5.03;1.80;;;15.30;99.90;;;;;;5129216;28;20043;-82
2021/08/03 06:35:50;;;;;;;4.57;1.77;;;15.40;99.90;;;;;;5131856;28;20387;-82
2021/08/03 06:38:18;;;;;;;6.15;1.85;;;15.40;99.90;;;;;;5151055;28;20032;-82
2021/08/03 06:41:04;;;;;;;4.38;1.80;;;15.40;99.90;;;;;;5148855;28;20164;-82
2021/08/03 06:43:32;;;;;;;10.75;2.17;;;15.40;99.90;;;;;;5149392;28;20088;-82
2021/08/03 06:46:07;;;;;;;7.93;2.50;;;15.40;99.90;;;;;;5128862;28;20039;-82
2021/08/03 06:48:37;;;;;;;5.18;2.30;;;15.40;99.90;;;;;;5112080;28;20050;-83
2021/08/03 06:51:14;;;;;;;5.80;2.28;;;15.30;99.90;;;;;;5129276;28;20032;-83
2021/08/03 06:53:44;;;;;;;5.85;2.72;;;15.40;99.90;;;;;;5148169;28;20035;-83
2021/08/03 06:56:14;;;;;;;5.72;2.40;;;15.40;99.90;;;;;;5146045;28;20049;-82
2021/08/03 06:59:17;;;;;;;6.40;2.63;;;15.40;99.90;;;;;;5095640;28;20059;-83
2021/08/03 07:01:55;;;;;;;4.30;2.55;;;15.40;99.90;;;;;;5135416;28;20044;-83
2021/08/03 07:04:35;;;;;;;3.97;2.47;;;15.40;99.90;;;;;;5150113;28;20108;-83
2021/08/03 07:07:03;;;;;;;7.82;2.53;;;15.40;99.90;;;;;;5145017;28;20028;-82
2021/08/03 07:09:30;;;;;;;6.28;2.80;;;15.50;99.90;;;;;;5133403;28;20039;-83
2021/08/03 07:11:57;;;;;;;5.90;2.58;;;15.50;99.90;;;;;;5114756;28;20047;-83
2021/08/03 07:14:25;;;;;;;6.90;2.30;;;15.50;99.90;;;;;;5150052;28;20467;-83
2021/08/03 07:16:56;;;;;;;6.13;2.30;;;15.60;99.90;;;;;;5148076;28;20032;-81
2021/08/03 07:19:23;;;;;;;4.35;2.15;;;15.60;99.90;;;;;;5148749;28;20444;-82
2021/08/03 07:21:51;;;;;;;4.82;1.73;;;15.70;99.90;;;;;;5114755;28;20395;-81
2021/08/03 07:24:18;;;;;;;8.07;2.13;;;15.70;99.90;;;;;;5131665;28;20105;-81
2021/08/03 07:26:45;;;;;;;2.13;1.20;;;15.90;99.90;;;;;;5148739;28;20039;-83
2021/08/03 07:29:12;;;;;;;3.88;1.58;;;16.00;99.90;;;;;;5147314;28;20074;-83
2021/08/03 07:31:41;;;;;;;3.78;1.73;;;16.10;99.90;;;;;;5128973;28;20063;-83
2021/08/03 07:34:12;;;;;;;2.80;1.13;;;16.20;99.90;;;;;;5110551;28;20040;-83
2021/08/03 07:36:39;;;;;;;4.65;1.30;;;16.20;99.90;;;;;;5121935;28;20039;-82
2021/08/03 07:39:07;;;;;;;3.30;1.50;;;16.20;99.90;;;;;;5086113;28;20040;-81
2021/08/03 07:41:35;;;;;;;3.78;1.23;;;16.20;99.90;;;;;;5112231;28;20510;-83
2021/08/03 07:44:03;;;;;;;3.47;1.10;;;16.20;99.90;;;;;;5143724;28;20043;-82
2021/08/03 07:46:31;;;;;;;3.90;1.35;;;16.30;99.90;;;;;;5121945;28;20036;-82
2021/08/03 07:49:03;;;;;;;4.35;1.20;;;16.40;99.90;;;;;;5125163;28;20044;-82
2021/08/03 07:51:31;;;;;;;4.80;1.30;;;16.60;99.90;;;;;;5148016;28;20456;-83
2021/08/03 07:53:57;;;;;;;6.25;1.10;;;16.60;99.90;;;;;;5147742;28;20035;-82
2021/08/03 07:56:24;;;;;;;4.65;1.20;;;16.80;99.90;;;;;;5113982;28;20054;-83
2021/08/03 07:58:51;;;;;;;3.70;1.30;;;17.00;99.90;;;;;;5130759;28;20050;-82
2021/08/03 08:01:18;;;;;;;4.80;0.95;;;17.10;99.90;;;;;;5113474;28;20044;-82
2021/08/03 08:03:46;;;;;;;5.63;1.48;;;17.20;99.90;;;;;;5130632;28;20035;-82
2021/08/03 08:06:13;;;;;;;3.15;1.00;;;17.20;99.90;;;;;;5130285;28;20092;-82
2021/08/03 08:08:40;;;;;;;2.42;1.00;;;17.30;99.90;;;;;;5126884;28;20064;-81
2021/08/03 08:11:07;;;;;;;3.80;1.15;;;17.40;99.90;;;;;;5129925;28;20031;-81
2021/08/03 08:13:34;;;;;;;3.42;0.85;;;17.50;99.90;;;;;;5147428;28;20084;-81
2021/08/03 08:16:02;;;;;;;4.10;1.00;;;17.60;99.90;;;;;;5147143;28;20043;-81
2021/08/03 08:18:29;;;;;;;2.25;0.90;;;17.70;99.90;;;;;;5147312;28;20396;-81
2021/08/03 08:20:55;;;;;;;2.65;0.85;;;17.90;99.90;;;;;;5130563;28;20035;-81
2021/08/03 08:23:23;;;;;;;2.58;0.80;;;17.90;99.90;;;;;;5130294;28;20071;-81
2021/08/03 08:25:50;;;;;;;3.05;0.98;;;18.00;99.90;;;;;;5118710;28;20032;-82
2021/08/03 08:28:17;;;;;;;2.40;0.75;;;17.90;99.90;;;;;;5127696;28;20460;-82
2021/08/03 08:30:43;;;;;;;4.35;0.95;;;18.00;99.90;;;;;;5093432;28;20042;-82
2021/08/03 08:33:10;;;;;;;3.60;1.05;;;18.00;99.90;;;;;;5109566;28;20397;-82
2021/08/03 08:35:37;;;;;;;5.57;1.13;;;18.00;99.90;;;;;;5093408;28;20119;-82
2021/08/03 08:38:06;;;;;;;4.97;1.02;;;18.00;99.90;;;;;;5109587;28;20374;-82
2021/08/03 08:40:33;;;;;;;5.13;1.20;;;17.90;99.90;;;;;;5142208;28;20042;-82
2021/08/03 08:43:00;;;;;;;3.38;0.98;;;17.90;99.90;;;;;;5148168;28;20036;-82
2021/08/03 08:45:30;;;;;;;3.42;1.13;;;17.90;99.90;;;;;;5149109;28;20403;-82
2021/08/03 08:47:58;;;;;;;3.20;0.88;;;17.90;99.90;;;;;;5134289;28;20035;-82
2021/08/03 08:50:25;;;;;;;3.72;1.08;;;18.10;99.90;;;;;;5152087;28;20046;-82
2021/08/03 08:52:54;;;;;;;2.10;1.00;;;18.20;99.90;;;;;;5123804;28;20036;-82
2021/08/03 08:55:23;;;;;;;3.60;1.10;;;18.30;99.90;;;;;;5131516;28;20059;-82
2021/08/03 08:57:51;;;;;;;4.10;1.10;;;18.50;99.90;;;;;;5097226;28;20044;-82
2021/08/03 09:00:21;;;;;;;3.78;1.27;;;18.60;99.90;;;;;;5142570;28;20031;-81
2021/08/03 09:02:53;;;;;;;2.50;0.93;;;18.80;99.90;;;;;;5139335;28;20115;-82
2021/08/03 09:05:29;;;;;;;1.80;0.80;;;18.80;99.90;;;;;;5113783;28;20460;-82
2021/08/03 09:07:58;;;;;;;2.42;1.00;;;18.90;99.90;;;;;;5135168;28;20032;-82
2021/08/03 09:10:49;;;;;;;2.58;1.13;;;18.80;99.90;;;;;;5121902;28;20533;-82
2021/08/03 09:13:20;;;;;;;2.97;1.00;;;19.00;99.90;;;;;;5149563;28;20036;-82
2021/08/03 09:16:01;;;;;;;2.13;0.80;;;19.00;99.90;;;;;;5130362;28;20036;-82
2021/08/03 09:18:34;;;;;;;1.98;0.82;;;19.00;99.90;;;;;;5113103;28;20047;-82
2021/08/03 09:21:02;;;;;;;4.25;1.00;;;18.90;99.90;;;;;;5114276;28;20055;-82
2021/08/03 09:23:48;;;;;;;2.70;1.00;;;18.90;99.90;;;;;;5135141;28;20032;-82
2021/08/03 09:26:15;;;;;;;2.58;1.10;;;18.80;99.90;;;;;;5130757;28;20040;-82
2021/08/03 09:29:09;;;;;;;4.00;1.10;;;18.90;99.90;;;;;;5113278;28;20204;-82
2021/08/03 09:31:37;;;;;;;4.43;1.08;;;18.80;99.90;;;;;;5130186;28;20438;-82
2021/08/03 09:34:12;;;;;;;4.78;1.10;;;18.80;99.90;;;;;;5149712;28;20043;-82
2021/08/03 09:36:55;;;;;;;4.68;0.95;;;18.70;99.90;;;;;;5150301;28;20392;-82
2021/08/03 09:39:45;;;;;;;2.75;1.00;;;18.80;99.90;;;;;;5132552;28;20027;-82
2021/08/03 09:42:23;;;;;;;2.60;0.90;;;18.80;99.90;;;;;;5149456;28;20039;-81
2021/08/03 09:44:52;;;;;;;2.90;1.00;;;18.90;99.90;;;;;;5151364;28;20039;-82
2021/08/03 09:47:20;;;;;;;3.03;1.02;;;18.80;99.90;;;;;;5112565;28;20044;-82
2021/08/03 09:49:54;;;;;;;2.15;0.85;;;18.80;99.90;;;;;;5112700;28;20127;-82
2021/08/03 09:52:27;;;;;;;2.60;0.95;;;18.70;99.90;;;;;;5128103;28;20048;-82
2021/08/03 09:55:15;;;;;;;2.88;1.00;;;18.70;99.90;;;;;;5129188;28;20086;-82
2021/08/03 09:57:45;;;;;;;3.13;1.30;;;18.80;99.90;;;;;;5095760;28;20059;-83
2021/08/03 10:00:37;;;;;;;4.18;1.33;;;18.70;99.90;;;;;;5129832;28;20032;-82
2021/08/03 10:03:04;;;;;;;3.28;1.50;;;18.70;99.90;;;;;;5129515;28;20032;-82
2021/08/03 10:05:32;;;;;;;3.92;1.40;;;18.70;99.90;;;;;;5112046;28;20040;-82
2021/08/03 10:07:59;;;;;;;4.80;1.50;;;18.70;99.90;;;;;;5112205;28;20048;-82
2021/08/03 10:10:26;;;;;;;6.22;1.98;;;18.70;99.90;;;;;;5112087;28;20040;-82
2021/08/03 10:12:53;;;;;;;5.32;1.60;;;18.70;99.90;;;;;;5096794;28;20081;-82
2021/08/03 10:15:19;;;;;;;5.70;1.70;;;18.70;99.90;;;;;;5150381;28;20046;-82
2021/08/03 10:17:46;;;;;;;3.22;1.30;;;18.70;99.90;;;;;;5132861;28;20035;-82
2021/08/03 10:20:14;;;;;;;3.75;1.33;;;18.70;99.90;;;;;;5111988;28;20123;-82
2021/08/03 10:23:00;;;;;;;2.63;1.40;;;18.80;99.90;;;;;;5096089;28;20058;-82
2021/08/03 10:25:39;;;;;;;;;;;18.70;99.90;;;;;;5128791;28;20059;-82
2021/08/03 10:28:28;;;;;;;3.28;1.50;;;18.80;99.90;;;;;;5128993;28;19916;-82
2021/08/03 10:30:56;;;;;;;3.83;1.40;;;18.70;99.90;;;;;;5129516;28;20040;-82
2021/08/03 10:33:44;;;;;;;3.17;1.50;;;18.80;99.90;;;;;;5128442;28;20040;-82
2021/08/03 10:36:47;;;;;;;2.90;1.45;;;18.80;99.90;;;;;;5129949;28;20142;-82
2021/08/03 10:39:19;;;;;;;4.88;1.80;;;18.80;99.90;;;;;;5092613;28;20167;-82
2021/08/03 10:42:07;;;;;;;3.33;1.27;;;18.80;99.90;;;;;;5125332;28;20095;-80
2021/08/03 10:44:41;;;;;;;3.22;1.30;;;18.90;99.90;;;;;;5130050;28;20043;-81
2021/08/03 10:47:40;;;;;;;5.65;1.50;;;18.90;99.90;;;;;;5133533;28;20023;-82
2021/08/03 10:50:11;;;;;;;2.97;1.60;;;19.00;99.90;;;;;;5149188;28;20032;-81
2021/08/03 10:52:48;;;;;;;3.90;1.40;;;19.10;99.90;;;;;;5148007;28;20046;-81
2021/08/03 10:55:57;;;;;;;3.28;1.30;;;19.20;99.90;;;;;;5149796;28;20126;-80
2021/08/03 10:58:27;;;;;;;4.85;1.30;;;19.40;99.90;;;;;;5128972;28;20036;-79
2021/08/03 11:01:02;;;;;;;3.50;1.10;;;19.40;99.90;;;;;;5129296;28;20487;-81
2021/08/03 11:03:34;;;;;;;3.33;1.45;;;19.50;99.90;;;;;;5126428;28;20396;-80
2021/08/03 11:06:10;;;;;;;3.28;1.40;;;19.80;99.90;;;;;;5145340;28;20040;-80
2021/08/03 11:08:45;;;;;;;4.60;1.40;;;20.00;99.90;;;;;;5148087;28;20036;-79
2021/08/03 11:11:17;;;;;;;3.50;1.20;;;20.20;99.90;;;;;;5130422;28;20101;-80
2021/08/03 11:13:47;;;;;;;5.85;1.50;;;20.30;99.90;;;;;;5128832;28;20286;-81
2021/08/03 11:16:20;;;;;;;4.60;1.38;;;20.50;99.90;;;;;;5127621;28;20035;-80
2021/08/03 11:19:06;;;;;;;4.40;1.60;;;20.60;99.90;;;;;;5127362;28;20042;-82
2021/08/03 11:21:42;;;;;;;6.03;1.50;;;20.60;99.90;;;;;;5110464;28;20032;-80
2021/08/03 11:24:16;;;;;;;3.35;1.40;;;20.60;99.90;;;;;;5128409;28;20070;-83
2021/08/03 11:26:51;;;;;;;4.10;1.25;;;20.70;99.90;;;;;;5111007;28;20047;-81
2021/08/03 11:29:20;;;;;;;3.60;1.10;;;20.80;99.90;;;;;;5127558;28;20032;-80
2021/08/03 11:31:57;;;;;;;2.75;1.10;;;20.90;99.90;;;;;;5110317;28;20400;-80
2021/08/03 11:34:39;;;;;;;3.10;1.00;;;20.90;99.90;;;;;;5127552;28;20085;-80
2021/08/03 11:37:13;;;;;;;2.58;1.08;;;21.00;99.90;;;;;;5127341;28;20039;-81
2021/08/03 11:39:58;;;;;;;3.08;1.20;;;20.90;99.90;;;;;;5132852;28;20067;-81
2021/08/03 11:42:32;;;;;;;3.80;1.20;;;20.90;99.90;;;;;;5130278;28;20040;-81
2021/08/03 11:45:04;;;;;;;3.17;1.20;;;20.90;99.90;;;;;;5141429;28;20043;-82
2021/08/03 11:48:01;;;;;;;2.30;1.10;;;21.10;99.90;;;;;;5134713;28;20048;-81
2021/08/03 11:50:35;;;;;;;2.40;1.17;;;21.20;99.90;;;;;;5128926;28;20059;-81
2021/08/03 11:53:09;;;;;;;3.47;1.20;;;21.40;99.90;;;;;;5131086;28;20048;-81
2021/08/03 11:55:39;;;;;;;2.10;1.00;;;21.50;99.90;;;;;;5137998;28;20056;-81
2021/08/03 11:58:06;;;;;;;2.70;1.20;;;21.40;99.90;;;;;;5147246;28;20050;-81
2021/08/03 12:00:34;;;;;;;3.65;1.30;;;21.30;99.90;;;;;;5130336;28;20103;-81
2021/08/03 12:03:02;;;;;;;4.47;1.10;;;21.00;99.90;;;;;;5113742;28;20031;-82
2021/08/03 12:05:33;;;;;;;2.83;1.15;;;20.90;99.90;;;;;;5147455;28;20440;-82
2021/08/03 12:08:10;;;;;;;3.20;1.08;;;21.00;99.90;;;;;;5147664;28;20046;-81
2021/08/03 12:10:48;;;;;;;5.70;1.33;;;20.90;99.90;;;;;;5133763;28;20119;-81
2021/08/03 12:13:34;;;;;;;5.22;1.20;;;20.70;99.90;;;;;;5110212;28;20040;-82
2021/08/03 12:16:03;;;;;;;2.10;1.05;;;20.70;99.90;;;;;;5126669;28;20036;-82
2021/08/03 12:18:34;;;;;;;2.45;1.08;;;20.50;99.90;;;;;;5126898;28;20066;-82
2021/08/03 12:21:01;;;;;;;4.13;1.15;;;20.40;99.90;;;;;;5127918;28;20063;-81
2021/08/03 12:23:33;;;;;;;3.33;1.15;;;20.30;99.90;;;;;;5110030;28;20085;-81
2021/08/03 12:26:15;;;;;;;2.88;1.27;;;20.30;99.90;;;;;;5110298;28;20423;-80
2021/08/03 12:28:51;;;;;;;4.28;1.67;;;20.40;99.90;;;;;;5126517;28;20123;-80
2021/08/03 12:31:19;;;;;;;4.53;1.55;;;20.60;99.90;;;;;;5127967;28;20157;-80
2021/08/03 12:33:48;;;;;;;4.10;1.58;;;20.80;99.90;;;;;;5126393;28;20476;-81
2021/08/03 12:36:17;;;;;;;5.32;1.70;;;21.00;99.90;;;;;;5126847;28;20482;-81
2021/08/03 12:39:17;;;;;;;3.72;1.65;;;21.20;99.90;;;;;;5109793;28;20042;-79
2021/08/03 12:41:44;;;;;;;3.92;1.30;;;21.40;99.90;;;;;;5126238;28;20173;-81
2021/08/03 12:44:27;;;;;;;3.75;1.30;;;21.30;99.90;;;;;;5126578;28;20036;-80
2021/08/03 12:46:54;;;;;;;5.40;1.70;;;21.20;99.90;;;;;;5126154;28;20039;-80
2021/08/03 12:49:51;;;;;;;3.60;2.00;;;21.10;99.90;;;;;;5110088;28;20032;-81
2021/08/03 12:52:23;;;;;;;3.75;1.85;;;20.90;99.90;;;;;;5147493;28;20055;-80
2021/08/03 12:54:59;;;;;;;5.03;1.98;;;20.80;99.90;;;;;;5125942;28;20066;-81
2021/08/03 12:57:50;;;;;;;4.18;1.67;;;20.70;99.90;;;;;;5127728;28;20116;-81
2021/08/03 13:00:40;;;;;;;3.10;1.73;;;20.60;99.90;;;;;;5128295;28;20028;-80
2021/08/03 13:03:11;;;;;;;3.28;1.90;;;20.50;99.90;;;;;;5126811;28;20173;-81
2021/08/03 13:05:40;;;;;;;4.75;1.95;;;20.70;99.90;;;;;;5109480;28;20066;-81
2021/08/03 13:08:08;;;;;;;4.28;1.90;;;20.70;99.90;;;;;;5126528;28;20119;-80
2021/08/03 13:10:36;;;;;;;2.88;1.48;;;20.80;99.90;;;;;;5122914;28;20439;-81
2021/08/03 13:13:04;;;;;;;3.75;1.50;;;20.80;99.90;;;;;;5145491;28;20071;-81